createdAt,value
2019-03-27T00:03:20.641Z,99.90
2019-03-27T00:08:45.816Z,99.90
2019-03-27T00:14:10.893Z,99.90
2019-03-27T00:19:35.503Z,99.90
2019-03-27T00:25:00.335Z,99.90
2019-03-27T00:30:25.252Z,99.90
2019-03-27T00:35:50.383Z,99.90
2019-03-27T00:41:15.532Z,99.90
2019-03-27T00:46:40.993Z,99.90
2019-03-27T00:52:06.159Z,99.90
2019-03-27T00:57:31.087Z,99.90
2019-03-27T01:02:55.475Z,99.90
2019-03-27T01:08:20.330Z,99.90
2019-03-27T01:13:45.493Z,99.90
2019-03-27T01:19:10.957Z,99.90
2019-03-27T01:24:36.379Z,99.90
2019-03-27T01:30:01.283Z,99.90
2019-03-27T01:35:26.367Z,99.90
2019-03-27T01:40:51.076Z,99.90
2019-03-27T01:46:16.394Z,99.90
2019-03-27T01:51:41.538Z,99.90
2019-03-27T01:57:07.555Z,99.90
2019-03-27T02:02:32.027Z,99.90
2019-03-27T02:07:56.675Z,99.90
2019-03-27T02:13:21.734Z,99.90
2019-03-27T02:18:46.463Z,99.90
2019-03-27T02:24:12.030Z,99.90
2019-03-27T02:29:36.905Z,99.90
2019-03-27T02:35:01.488Z,99.90
2019-03-27T02:40:26.563Z,99.90
2019-03-27T02:45:51.584Z,99.90
2019-03-27T02:51:16.932Z,99.90
2019-03-27T02:56:41.625Z,99.90
2019-03-27T03:02:06.526Z,99.90
2019-03-27T03:07:31.855Z,99.90
2019-03-27T03:12:57.212Z,99.90
2019-03-27T03:18:22.172Z,99.90
2019-03-27T03:23:47.159Z,99.90
2019-03-27T03:29:12.439Z,99.90
2019-03-27T03:34:37.620Z,99.90
2019-03-27T03:40:02.266Z,99.90
2019-03-27T03:45:27.122Z,99.90
2019-03-27T03:50:53.830Z,99.90
2019-03-27T03:56:19.612Z,99.90
2019-03-27T04:01:46.138Z,99.90
2019-03-27T04:07:11.067Z,99.90
2019-03-27T04:12:36.977Z,99.90
2019-03-27T04:18:02.054Z,99.90
2019-03-27T04:23:26.757Z,99.90
2019-03-27T04:28:51.595Z,99.90
2019-03-27T04:34:16.363Z,99.90
2019-03-27T04:39:41.603Z,99.90
2019-03-27T04:45:07.107Z,99.90
2019-03-27T04:50:31.618Z,99.90
2019-03-27T04:55:56.870Z,99.90
2019-03-27T05:01:21.986Z,99.90
2019-03-27T05:06:47.020Z,99.90
2019-03-27T05:12:12.183Z,99.90
2019-03-27T05:17:45.612Z,99.90
2019-03-27T05:23:03.455Z,99.90
2019-03-27T05:28:28.521Z,99.90
2019-03-27T05:33:53.598Z,99.90
2019-03-27T05:39:18.006Z,99.90
2019-03-27T05:44:42.538Z,99.90
2019-03-27T05:50:08.693Z,99.90
2019-03-27T05:55:33.340Z,99.90
2019-03-27T06:00:58.577Z,99.90
2019-03-27T06:06:23.916Z,99.90
2019-03-27T06:11:49.105Z,99.90
2019-03-27T06:17:13.913Z,99.90
2019-03-27T06:22:38.915Z,99.90
2019-03-27T06:28:04.322Z,99.90
2019-03-27T06:33:29.575Z,99.90
2019-03-27T06:38:55.034Z,99.90
2019-03-27T06:44:20.280Z,99.90
2019-03-27T06:49:45.708Z,99.90
2019-03-27T06:55:11.223Z,99.90
2019-03-27T07:00:37.462Z,99.90
2019-03-27T07:06:02.143Z,99.90
2019-03-27T07:11:27.063Z,99.90
2019-03-27T07:16:51.949Z,99.90
2019-03-27T07:22:16.664Z,99.90
2019-03-27T07:27:41.522Z,99.90
2019-03-27T07:33:06.690Z,99.90
2019-03-27T07:38:31.671Z,99.90
2019-03-27T07:43:56.951Z,99.90
2019-03-27T07:49:21.999Z,99.90
2019-03-27T07:54:47.109Z,99.90
2019-03-27T08:00:15.467Z,99.90
2019-03-27T08:05:41.795Z,99.90
2019-03-27T08:11:06.337Z,99.90
2019-03-27T08:16:31.368Z,99.90
2019-03-27T08:21:56.420Z,99.90
2019-03-27T08:27:21.490Z,99.90
2019-03-27T08:32:46.337Z,99.90
2019-03-27T08:38:11.260Z,99.90
2019-03-27T08:43:36.096Z,99.90
2019-03-27T08:49:01.370Z,99.90
2019-03-27T08:54:26.418Z,99.90
2019-03-27T08:59:51.745Z,99.80
2019-03-27T09:05:16.756Z,99.30
2019-03-27T09:10:41.954Z,98.90
2019-03-27T09:16:07.047Z,98.90
2019-03-27T09:21:31.695Z,97.30
2019-03-27T09:26:56.815Z,97.10
2019-03-27T09:32:22.240Z,96.90
2019-03-27T09:37:47.052Z,95.60
2019-03-27T09:43:12.081Z,95.50
2019-03-27T09:48:37.068Z,95.00
2019-03-27T09:54:02.389Z,93.10
2019-03-27T09:59:27.260Z,92.60
2019-03-27T10:04:55.808Z,91.60
2019-03-27T10:10:19.188Z,91.60
2019-03-27T10:15:44.099Z,90.40
2019-03-27T10:21:08.866Z,95.40
2019-03-27T10:26:34.608Z,96.90
2019-03-27T10:31:59.186Z,99.90
2019-03-27T10:37:24.557Z,99.90
2019-03-27T10:42:49.162Z,99.90
2019-03-27T10:48:14.260Z,99.90
2019-03-27T10:53:38.813Z,99.90
2019-03-27T10:59:04.210Z,99.90
2019-03-27T11:04:30.735Z,99.90
2019-03-27T11:09:55.645Z,99.90
2019-03-27T11:15:21.159Z,99.90
2019-03-27T11:20:45.877Z,99.90
2019-03-27T11:26:10.998Z,99.90
2019-03-27T11:31:35.363Z,99.90
2019-03-27T11:37:00.210Z,99.90
2019-03-27T11:42:25.658Z,99.90
2019-03-27T11:47:51.208Z,99.90
2019-03-27T11:53:16.362Z,99.90
2019-03-27T11:58:41.214Z,99.90
2019-03-27T12:04:06.151Z,99.90
2019-03-27T12:09:30.681Z,99.90
2019-03-27T12:14:56.306Z,99.90
2019-03-27T12:20:21.976Z,99.90
2019-03-27T12:25:47.244Z,99.90
2019-03-27T12:31:12.517Z,99.90
2019-03-27T12:36:37.556Z,99.90
2019-03-27T12:42:02.936Z,99.90
2019-03-27T12:47:28.376Z,99.90
2019-03-27T12:52:53.274Z,99.90
2019-03-27T12:58:18.102Z,99.90
2019-03-27T13:03:44.505Z,99.90
2019-03-27T13:09:09.295Z,99.70
2019-03-27T13:14:34.613Z,99.90
2019-03-27T13:19:59.464Z,99.90
2019-03-27T13:25:25.034Z,99.90
2019-03-27T13:30:50.489Z,99.60
2019-03-27T13:36:15.362Z,97.50
2019-03-27T13:41:40.810Z,97.80
2019-03-27T13:47:06.306Z,96.90
2019-03-27T13:52:31.396Z,96.90
2019-03-27T13:57:56.638Z,95.50
2019-03-27T14:03:22.310Z,95.60
2019-03-27T14:08:47.602Z,94.80
2019-03-27T14:14:12.731Z,93.60
2019-03-27T14:19:38.279Z,94.60
2019-03-27T14:25:03.329Z,95.10
2019-03-27T14:30:57.829Z,93.80
2019-03-27T14:36:22.147Z,92.80
2019-03-27T14:41:46.819Z,94.70
2019-03-27T14:47:11.800Z,94.10
2019-03-27T14:52:36.826Z,93.80
2019-03-27T14:58:02.108Z,94.10
2019-03-27T15:03:27.014Z,92.90
2019-03-27T15:08:51.583Z,94.30
2019-03-27T15:14:16.777Z,95.00
2019-03-27T15:19:41.925Z,95.70
2019-03-27T15:25:07.374Z,95.90
2019-03-27T15:30:32.292Z,95.30
2019-03-27T15:35:57.477Z,97.10
2019-03-27T15:41:22.954Z,97.40
2019-03-27T15:46:47.740Z,96.80
2019-03-27T15:52:13.039Z,96.40
2019-03-27T15:57:38.129Z,95.60
2019-03-27T16:03:03.000Z,96.60
2019-03-27T16:08:28.348Z,96.90
2019-03-27T16:13:53.045Z,96.50
2019-03-27T16:19:17.903Z,97.50
2019-03-27T16:24:42.995Z,98.50
2019-03-27T16:30:08.298Z,99.00
2019-03-27T16:35:33.394Z,99.60
2019-03-27T16:40:59.040Z,99.50
2019-03-27T16:46:23.591Z,99.60
2019-03-27T16:51:49.683Z,99.90
2019-03-27T16:57:15.161Z,99.70
2019-03-27T17:02:40.712Z,99.20
2019-03-27T17:08:06.571Z,99.80
2019-03-27T17:13:31.568Z,99.00
2019-03-27T17:18:56.814Z,99.10
2019-03-27T17:24:22.359Z,99.50
2019-03-27T17:29:47.828Z,99.90
2019-03-27T17:35:12.605Z,99.90
2019-03-27T17:40:37.685Z,99.90
2019-03-27T17:46:02.784Z,99.90
2019-03-27T17:51:27.507Z,99.90
2019-03-27T17:56:52.510Z,99.90
2019-03-27T18:02:17.339Z,99.90
2019-03-27T18:07:42.607Z,99.90
2019-03-27T18:13:07.875Z,99.90
2019-03-27T18:18:35.800Z,99.90
2019-03-27T18:24:01.488Z,99.90
2019-03-27T18:29:26.132Z,99.90
2019-03-27T18:34:51.486Z,99.90
2019-03-27T18:40:16.785Z,99.90
2019-03-27T18:45:41.663Z,99.90
2019-03-27T18:51:07.492Z,99.90
2019-03-27T18:56:32.371Z,99.90
2019-03-27T19:01:57.843Z,99.90
2019-03-27T19:07:23.304Z,99.90
2019-03-27T19:12:48.299Z,99.90
2019-03-27T19:18:13.303Z,99.90
2019-03-27T19:23:38.443Z,99.90
2019-03-27T19:29:03.849Z,99.90
2019-03-27T19:34:28.978Z,99.90
2019-03-27T19:39:54.201Z,99.90
2019-03-27T19:45:19.551Z,99.90
2019-03-27T19:50:44.658Z,99.90
2019-03-27T19:56:10.045Z,99.90
2019-03-27T20:01:35.310Z,99.90
2019-03-27T20:07:00.902Z,99.90
2019-03-27T20:12:26.049Z,99.90
2019-03-27T20:17:50.967Z,99.90
2019-03-27T20:23:16.143Z,99.90
2019-03-27T20:28:41.060Z,99.90
2019-03-27T20:34:06.462Z,99.90
2019-03-27T20:39:31.634Z,99.90
2019-03-27T20:44:56.571Z,99.90
2019-03-27T20:50:21.306Z,99.90
2019-03-27T20:55:46.891Z,99.90
2019-03-27T21:01:12.093Z,99.90
2019-03-27T21:06:36.882Z,99.90
2019-03-27T21:12:01.904Z,99.90
2019-03-27T21:17:26.909Z,99.90
2019-03-27T21:22:52.903Z,99.90
2019-03-27T21:28:18.111Z,99.90
2019-03-27T21:33:43.915Z,99.90
2019-03-27T21:39:10.192Z,99.90
2019-03-27T21:44:35.647Z,99.90
2019-03-27T21:50:00.501Z,99.90
2019-03-27T21:55:25.444Z,99.90
2019-03-27T22:00:50.904Z,99.90
2019-03-27T22:06:16.510Z,99.90
2019-03-27T22:11:42.001Z,99.90
2019-03-27T22:17:06.927Z,99.90
2019-03-27T22:22:31.678Z,99.90
2019-03-27T22:27:56.856Z,99.90
2019-03-27T22:33:21.868Z,99.90
2019-03-27T22:38:47.073Z,99.90
2019-03-27T22:44:12.575Z,99.90
2019-03-27T22:49:37.862Z,99.90
2019-03-27T22:55:03.487Z,99.90
2019-03-27T23:00:40.174Z,99.90
2019-03-27T23:06:05.051Z,99.90
2019-03-27T23:11:29.635Z,99.90
2019-03-27T23:16:54.813Z,99.90
2019-03-27T23:22:19.848Z,99.90
2019-03-27T23:27:45.084Z,99.90
2019-03-27T23:33:10.220Z,99.90
2019-03-27T23:38:35.199Z,99.90
2019-03-27T23:44:00.122Z,99.90
2019-03-27T23:49:24.918Z,99.90
2019-03-27T23:54:49.494Z,99.90
